Terminal Aerodrome Forecast
Issued by NWS Omaha/Valley, NE

Home | Current Version | Previous Version | Text Only | Print | Product List | Glossary On
Versions: 1 2 3 4 5 6 7 8 9 10 11 12 13 14 15 16 17 18 19 20 21
000
FTUS43 KOAX 270520
TAFOMA
TAF
KOMA 270520Z 2706/2806 32011KT P6SM OVC035
     FM271200 31008KT P6SM SCT100
     FM272300 29006KT P6SM BKN110
     FM280100 07006KT P6SM BKN080=

USA.gov is the U.S. government's official web portal to all federal, state and local government web resources and services.